sensor_id;sensor_type;location;lat;lon;timestamp;pressure;altitude;pressure_sealevel;temperature;humidity
39197;BME280;42889;51.112;13.772;2023-01-26T00:01:33;99843.06;;;0.02;100.00
39197;BME280;42889;51.112;13.772;2023-01-26T00:03:59;99835.56;;;-0.08;100.00
39197;BME280;42889;51.112;13.772;2023-01-26T00:06:26;99836.34;;;-0.06;100.00
39197;BME280;42889;51.112;13.772;2023-01-26T00:08:54;99831.97;;;-0.24;100.00
39197;BME280;42889;51.112;13.772;2023-01-26T00:11:25;99834.47;;;-0.21;100.00
39197;BME280;42889;51.112;13.772;2023-01-26T00:13:53;99832.22;;;-0.11;100.00
39197;BME280;42889;51.112;13.772;2023-01-26T00:16:20;99834.16;;;-0.15;100.00
39197;BME280;42889;51.112;13.772;2023-01-26T00:18:47;99833.38;;;-0.17;100.00
39197;BME280;42889;51.112;13.772;2023-01-26T00:21:16;99829.88;;;-0.17;100.00
39197;BME280;42889;51.112;13.772;2023-01-26T00:23:44;99830.44;;;-0.11;100.00
39197;BME280;42889;51.112;13.772;2023-01-26T00:26:19;99828.41;;;-0.06;100.00
39197;BME280;42889;51.112;13.772;2023-01-26T00:28:47;99826.06;;;-0.12;100.00
39197;BME280;42889;51.112;13.772;2023-01-26T00:31:20;99828.78;;;-0.13;100.00
39197;BME280;42889;51.112;13.772;2023-01-26T00:33:47;99827.56;;;-0.06;100.00
39197;BME280;42889;51.112;13.772;2023-01-26T00:36:14;99819.56;;;-0.05;100.00
39197;BME280;42889;51.112;13.772;2023-01-26T00:38:41;99817.59;;;-0.01;100.00
39197;BME280;42889;51.112;13.772;2023-01-26T00:41:08;99815.75;;;0.01;100.00
39197;BME280;42889;51.112;13.772;2023-01-26T00:43:55;99811.75;;;-0.08;100.00
39197;BME280;42889;51.112;13.772;2023-01-26T00:46:22;99808.41;;;-0.11;100.00
39197;BME280;42889;51.112;13.772;2023-01-26T00:48:49;99813.16;;;-0.01;100.00
39197;BME280;42889;51.112;13.772;2023-01-26T00:51:16;99814.81;;;0.02;100.00
39197;BME280;42889;51.112;13.772;2023-01-26T00:53:42;99818.56;;;0.15;100.00
39197;BME280;42889;51.112;13.772;2023-01-26T00:56:11;99812.28;;;0.18;100.00
39197;BME280;42889;51.112;13.772;2023-01-26T00:58:40;99814.28;;;0.13;100.00
39197;BME280;42889;51.112;13.772;2023-01-26T01:01:09;99811.09;;;0.06;100.00
39197;BME280;42889;51.112;13.772;2023-01-26T01:03:39;99815.91;;;0.15;100.00
39197;BME280;42889;51.112;13.772;2023-01-26T01:06:06;99805.19;;;0.01;100.00
39197;BME280;42889;51.112;13.772;2023-01-26T01:08:32;99800.72;;;-0.16;100.00
39197;BME280;42889;51.112;13.772;2023-01-26T01:11:08;99803.81;;;-0.25;100.00
39197;BME280;42889;51.112;13.772;2023-01-26T01:13:35;99802.56;;;-0.18;100.00
39197;BME280;42889;51.112;13.772;2023-01-26T01:16:06;99803.38;;;-0.16;100.00
39197;BME280;42889;51.112;13.772;2023-01-26T01:18:34;99801.19;;;-0.08;100.00
39197;BME280;42889;51.112;13.772;2023-01-26T01:21:09;99795.44;;;-0.16;100.00
39197;BME280;42889;51.112;13.772;2023-01-26T01:23:37;99797.81;;;-0.11;100.00
39197;BME280;42889;51.112;13.772;2023-01-26T01:26:04;99801.03;;;-0.22;100.00
39197;BME280;42889;51.112;13.772;2023-01-26T01:28:32;99799.22;;;-0.21;100.00
39197;BME280;42889;51.112;13.772;2023-01-26T01:30:58;99801.19;;;-0.08;100.00
39197;BME280;42889;51.112;13.772;2023-01-26T01:33:25;99803.38;;;-0.16;100.00
39197;BME280;42889;51.112;13.772;2023-01-26T01:36:00;99799.38;;;-0.24;100.00
39197;BME280;42889;51.112;13.772;2023-01-26T01:38:28;99804.19;;;-0.33;100.00
39197;BME280;42889;51.112;13.772;2023-01-26T01:40:56;99791.28;;;-0.21;100.00
39197;BME280;42889;51.112;13.772;2023-01-26T01:43:24;99793.56;;;-0.14;100.00
39197;BME280;42889;51.112;13.772;2023-01-26T01:45:52;99786.38;;;-0.12;100.00
39197;BME280;42889;51.112;13.772;2023-01-26T01:48:29;99780.94;;;-0.26;100.00
39197;BME280;42889;51.112;13.772;2023-01-26T01:50:59;99780.09;;;-0.09;100.00
39197;BME280;42889;51.112;13.772;2023-01-26T01:53:31;99768.50;;;-0.07;100.00
39197;BME280;42889;51.112;13.772;2023-01-26T01:56:03;99762.84;;;-0.16;100.00
39197;BME280;42889;51.112;13.772;2023-01-26T01:58:34;99767.53;;;-0.23;100.00
39197;BME280;42889;51.112;13.772;2023-01-26T02:01:01;99762.53;;;-0.10;100.00
39197;BME280;42889;51.112;13.772;2023-01-26T02:03:29;99760.00;;;-0.13;100.00
39197;BME280;42889;51.112;13.772;2023-01-26T02:08:40;99762.66;;;-0.31;100.00
39197;BME280;42889;51.112;13.772;2023-01-26T02:11:33;99750.72;;;-0.39;100.00
39197;BME280;42889;51.112;13.772;2023-01-26T02:14:04;99756.34;;;-0.28;100.00
39197;BME280;42889;51.112;13.772;2023-01-26T02:16:33;99750.41;;;-0.33;100.00
39197;BME280;42889;51.112;13.772;2023-01-26T02:19:01;99739.44;;;-0.43;100.00
39197;BME280;42889;51.112;13.772;2023-01-26T02:21:28;99739.13;;;-0.54;100.00
39197;BME280;42889;51.112;13.772;2023-01-26T02:24:15;99741.53;;;-0.49;100.00
39197;BME280;42889;51.112;13.772;2023-01-26T02:26:44;99730.97;;;-0.49;100.00
39197;BME280;42889;51.112;13.772;2023-01-26T02:29:10;99726.44;;;-0.47;100.00
39197;BME280;42889;51.112;13.772;2023-01-26T02:31:41;99725.22;;;-0.40;100.00
39197;BME280;42889;51.112;13.772;2023-01-26T02:34:08;99718.44;;;-0.46;100.00
39197;BME280;42889;51.112;13.772;2023-01-26T02:36:35;99713.56;;;-0.36;100.00
39197;BME280;42889;51.112;13.772;2023-01-26T02:41:49;99711.56;;;-0.50;100.00
39197;BME280;42889;51.112;13.772;2023-01-26T02:44:38;99701.63;;;-0.45;100.00
39197;BME280;42889;51.112;13.772;2023-01-26T02:47:15;99698.63;;;-0.55;100.00
39197;BME280;42889;51.112;13.772;2023-01-26T02:49:42;99690.72;;;-0.56;100.00
39197;BME280;42889;51.112;13.772;2023-01-26T02:52:24;99693.47;;;-0.58;100.00
39197;BME280;42889;51.112;13.772;2023-01-26T02:55:01;99685.22;;;-0.51;100.00
39197;BME280;42889;51.112;13.772;2023-01-26T02:57:48;99686.59;;;-0.62;100.00
39197;BME280;42889;51.112;13.772;2023-01-26T03:00:20;99697.03;;;-0.59;100.00
39197;BME280;42889;51.112;13.772;2023-01-26T03:02:51;99694.41;;;-0.59;100.00
39197;BME280;42889;51.112;13.772;2023-01-26T03:05:19;99698.69;;;-0.39;100.00
39197;BME280;42889;51.112;13.772;2023-01-26T03:07:45;99699.88;;;-0.27;100.00
39197;BME280;42889;51.112;13.772;2023-01-26T03:10:13;99690.22;;;-0.28;100.00
39197;BME280;42889;51.112;13.772;2023-01-26T03:12:41;99691.06;;;-0.28;100.00
39197;BME280;42889;51.112;13.772;2023-01-26T03:15:09;99692.19;;;-0.32;100.00
39197;BME280;42889;51.112;13.772;2023-01-26T03:18:03;99691.41;;;-0.16;100.00
39197;BME280;42889;51.112;13.772;2023-01-26T03:20:49;99683.47;;;-0.16;100.00
39197;BME280;42889;51.112;13.772;2023-01-26T03:23:34;99679.19;;;-0.19;100.00
39197;BME280;42889;51.112;13.772;2023-01-26T03:26:21;99677.63;;;-0.23;100.00
39197;BME280;42889;51.112;13.772;2023-01-26T03:29:06;99679.19;;;-0.19;100.00
39197;BME280;42889;51.112;13.772;2023-01-26T03:31:33;99680.84;;;-0.16;100.00
39197;BME280;42889;51.112;13.772;2023-01-26T03:34:00;99683.72;;;-0.21;100.00
39197;BME280;42889;51.112;13.772;2023-01-26T03:36:27;99682.28;;;-0.28;100.00
39197;BME280;42889;51.112;13.772;2023-01-26T03:38:54;99678.25;;;-0.18;100.00
39197;BME280;42889;51.112;13.772;2023-01-26T03:41:21;99673.19;;;-0.22;100.00
39197;BME280;42889;51.112;13.772;2023-01-26T03:44:06;99676.13;;;-0.11;100.00
39197;BME280;42889;51.112;13.772;2023-01-26T03:46:53;99676.75;;;-0.06;100.00
39197;BME280;42889;51.112;13.772;2023-01-26T03:49:38;99675.28;;;-0.12;100.00
39197;BME280;42889;51.112;13.772;2023-01-26T03:52:23;99664.69;;;-0.12;100.00
39197;BME280;42889;51.112;13.772;2023-01-26T03:55:09;99670.84;;;-0.11;100.00
39197;BME280;42889;51.112;13.772;2023-01-26T03:57:54;99663.09;;;-0.14;100.00
39197;BME280;42889;51.112;13.772;2023-01-26T04:00:21;99667.34;;;-0.29;100.00
39197;BME280;42889;51.112;13.772;2023-01-26T04:02:49;99661.72;;;-0.06;100.00
39197;BME280;42889;51.112;13.772;2023-01-26T04:05:35;99657.94;;;-0.17;100.00
39197;BME280;42889;51.112;13.772;2023-01-26T04:08:40;99656.53;;;-0.07;100.00
39197;BME280;42889;51.112;13.772;2023-01-26T04:11:07;99648.38;;;-0.20;100.00
39197;BME280;42889;51.112;13.772;2023-01-26T04:13:34;99656.53;;;-0.24;100.00
39197;BME280;42889;51.112;13.772;2023-01-26T04:16:28;99647.63;;;-0.22;100.00
39197;BME280;42889;51.112;13.772;2023-01-26T04:19:14;99650.63;;;-0.12;100.00
39197;BME280;42889;51.112;13.772;2023-01-26T04:22:00;99651.31;;;-0.09;100.00
39197;BME280;42889;51.112;13.772;2023-01-26T04:24:28;99641.38;;;-0.21;100.00
39197;BME280;42889;51.112;13.772;2023-01-26T04:26:57;99641.06;;;-0.15;100.00
39197;BME280;42889;51.112;13.772;2023-01-26T04:29:29;99642.31;;;-0.22;100.00
39197;BME280;42889;51.112;13.772;2023-01-26T04:31:55;99646.72;;;-0.22;100.00
39197;BME280;42889;51.112;13.772;2023-01-26T04:34:22;99646.50;;;-0.18;100.00
39197;BME280;42889;51.112;13.772;2023-01-26T04:36:49;99639.38;;;-0.16;100.00
39197;BME280;42889;51.112;13.772;2023-01-26T04:39:17;99630.56;;;-0.34;100.00
39197;BME280;42889;51.112;13.772;2023-01-26T04:41:47;99629.88;;;-0.37;100.00
39197;BME280;42889;51.112;13.772;2023-01-26T04:44:15;99631.41;;;-0.33;100.00
39197;BME280;42889;51.112;13.772;2023-01-26T04:46:42;99621.94;;;-0.20;100.00
39197;BME280;42889;51.112;13.772;2023-01-26T04:49:11;99622.16;;;-0.24;100.00
39197;BME280;42889;51.112;13.772;2023-01-26T04:51:38;99628.84;;;-0.35;100.00
39197;BME280;42889;51.112;13.772;2023-01-26T04:54:05;99611.69;;;-0.26;100.00
39197;BME280;42889;51.112;13.772;2023-01-26T04:56:36;99624.59;;;-0.37;100.00
39197;BME280;42889;51.112;13.772;2023-01-26T04:59:05;99624.59;;;-0.37;100.00
39197;BME280;42889;51.112;13.772;2023-01-26T05:01:34;99625.75;;;-0.43;100.00
39197;BME280;42889;51.112;13.772;2023-01-26T05:04:04;99625.50;;;-0.21;100.00
39197;BME280;42889;51.112;13.772;2023-01-26T05:06:32;99633.16;;;-0.32;100.00
39197;BME280;42889;51.112;13.772;2023-01-26T05:08:59;99637.88;;;-0.21;100.00
39197;BME280;42889;51.112;13.772;2023-01-26T05:11:26;99631.34;;;-0.32;100.00
39197;BME280;42889;51.112;13.772;2023-01-26T05:14:12;99637.28;;;-0.44;100.00
39197;BME280;42889;51.112;13.772;2023-01-26T05:17:02;99633.50;;;-0.22;100.00
39197;BME280;42889;51.112;13.772;2023-01-26T05:19:47;99635.00;;;-0.34;100.00
39197;BME280;42889;51.112;13.772;2023-01-26T05:22:26;99638.25;;;-0.29;100.00
39197;BME280;42889;51.112;13.772;2023-01-26T05:25:12;99631.41;;;-0.33;100.00
39197;BME280;42889;51.112;13.772;2023-01-26T05:27:46;99641.31;;;-0.37;100.00
39197;BME280;42889;51.112;13.772;2023-01-26T05:30:13;99632.75;;;-0.42;100.00
39197;BME280;42889;51.112;13.772;2023-01-26T05:32:41;99643.78;;;-0.34;100.00
39197;BME280;42889;51.112;13.772;2023-01-26T05:35:08;99644.50;;;-0.30;100.00
39197;BME280;42889;51.112;13.772;2023-01-26T05:37:35;99638.44;;;-0.32;100.00
39197;BME280;42889;51.112;13.772;2023-01-26T05:40:02;99634.47;;;-0.41;100.00
39197;BME280;42889;51.112;13.772;2023-01-26T05:42:30;99639.44;;;-0.35;100.00
39197;BME280;42889;51.112;13.772;2023-01-26T05:45:20;99643.97;;;-0.37;100.00
39197;BME280;42889;51.112;13.772;2023-01-26T05:47:50;99632.97;;;-0.29;100.00
39197;BME280;42889;51.112;13.772;2023-01-26T05:50:17;99631.03;;;-0.43;100.00
39197;BME280;42889;51.112;13.772;2023-01-26T05:53:04;99633.47;;;-0.38;100.00
39197;BME280;42889;51.112;13.772;2023-01-26T05:55:34;99635.53;;;-0.45;100.00
39197;BME280;42889;51.112;13.772;2023-01-26T05:58:01;99636.03;;;-0.37;100.00
39197;BME280;42889;51.112;13.772;2023-01-26T06:00:29;99635.84;;;-0.34;100.00
39197;BME280;42889;51.112;13.772;2023-01-26T06:03:04;99637.00;;;-0.39;100.00
39197;BME280;42889;51.112;13.772;2023-01-26T06:05:31;99631.66;;;-0.38;100.00
39197;BME280;42889;51.112;13.772;2023-01-26T06:08:00;99634.22;;;-0.36;100.00
39197;BME280;42889;51.112;13.772;2023-01-26T06:10:34;99639.13;;;-0.46;100.00
39197;BME280;42889;51.112;13.772;2023-01-26T06:13:22;99638.28;;;-0.46;100.00
39197;BME280;42889;51.112;13.772;2023-01-26T06:16:00;99646.50;;;-0.52;100.00
39197;BME280;42889;51.112;13.772;2023-01-26T06:18:29;99637.94;;;-0.58;100.00
39197;BME280;42889;51.112;13.772;2023-01-26T06:20:59;99647.06;;;-0.46;100.00
39197;BME280;42889;51.112;13.772;2023-01-26T06:23:28;99643.09;;;-0.55;100.00
39197;BME280;42889;51.112;13.772;2023-01-26T06:25:59;99645.34;;;-0.47;100.00
39197;BME280;42889;51.112;13.772;2023-01-26T06:28:29;99641.69;;;-0.62;100.00
39197;BME280;42889;51.112;13.772;2023-01-26T06:31:04;99648.75;;;-0.62;100.00
39197;BME280;42889;51.112;13.772;2023-01-26T06:33:32;99645.78;;;-0.56;100.00
39197;BME280;42889;51.112;13.772;2023-01-26T06:36:04;99642.38;;;-0.41;100.00
39197;BME280;42889;51.112;13.772;2023-01-26T06:38:31;99643.47;;;-0.45;100.00
39197;BME280;42889;51.112;13.772;2023-01-26T06:41:02;99647.22;;;-0.32;100.00
39197;BME280;42889;51.112;13.772;2023-01-26T06:43:32;99642.16;;;-0.54;100.00
39197;BME280;42889;51.112;13.772;2023-01-26T06:45:59;99640.81;;;-0.45;100.00
39197;BME280;42889;51.112;13.772;2023-01-26T06:48:28;99640.16;;;-0.48;100.00
39197;BME280;42889;51.112;13.772;2023-01-26T06:50:56;99631.09;;;-0.44;100.00
39197;BME280;42889;51.112;13.772;2023-01-26T06:53:36;99644.94;;;-0.39;100.00
39197;BME280;42889;51.112;13.772;2023-01-26T06:56:23;99640.69;;;-0.24;100.00
39197;BME280;42889;51.112;13.772;2023-01-26T06:59:19;99637.63;;;-0.34;100.00
39197;BME280;42889;51.112;13.772;2023-01-26T07:02:17;99634.22;;;-0.19;100.00
39197;BME280;42889;51.112;13.772;2023-01-26T07:04:46;99641.00;;;-0.31;100.00
39197;BME280;42889;51.112;13.772;2023-01-26T07:07:13;99641.00;;;-0.31;100.00
39197;BME280;42889;51.112;13.772;2023-01-26T07:09:40;99632.84;;;-0.43;100.00
39197;BME280;42889;51.112;13.772;2023-01-26T07:12:06;99634.47;;;-0.41;100.00
39197;BME280;42889;51.112;13.772;2023-01-26T07:14:33;99635.72;;;-0.48;100.00
39197;BME280;42889;51.112;13.772;2023-01-26T07:17:00;99637.31;;;-0.45;100.00
39197;BME280;42889;51.112;13.772;2023-01-26T07:19:27;99637.81;;;-0.37;100.00
39197;BME280;42889;51.112;13.772;2023-01-26T07:21:56;99631.81;;;-0.23;100.00
39197;BME280;42889;51.112;13.772;2023-01-26T07:24:23;99631.41;;;-0.33;100.00
39197;BME280;42889;51.112;13.772;2023-01-26T07:26:50;99631.66;;;-0.38;100.00
39197;BME280;42889;51.112;13.772;2023-01-26T07:29:17;99635.16;;;-0.37;100.00
39197;BME280;42889;51.112;13.772;2023-01-26T07:31:43;99636.03;;;-0.37;100.00
39197;BME280;42889;51.112;13.772;2023-01-26T07:34:10;99637.31;;;-0.28;100.00
39197;BME280;42889;51.112;13.772;2023-01-26T07:36:37;99632.84;;;-0.26;100.00
39197;BME280;42889;51.112;13.772;2023-01-26T07:39:04;99633.38;;;-0.37;100.00
39197;BME280;42889;51.112;13.772;2023-01-26T07:41:34;99631.59;;;-0.36;100.00
39197;BME280;42889;51.112;13.772;2023-01-26T07:44:09;99631.66;;;-0.38;100.00
39197;BME280;42889;51.112;13.772;2023-01-26T07:46:35;99635.09;;;-0.36;100.00
39197;BME280;42889;51.112;13.772;2023-01-26T07:49:02;99630.31;;;-0.29;100.00
39197;BME280;42889;51.112;13.772;2023-01-26T07:51:29;99628.63;;;-0.30;100.00
39197;BME280;42889;51.112;13.772;2023-01-26T07:53:55;99629.72;;;-0.34;100.00
39197;BME280;42889;51.112;13.772;2023-01-26T07:56:22;99630.09;;;-0.42;100.00
39197;BME280;42889;51.112;13.772;2023-01-26T07:58:50;99634.94;;;-0.33;100.00
39197;BME280;42889;51.112;13.772;2023-01-26T08:01:18;99631.41;;;-0.33;100.00
39197;BME280;42889;51.112;13.772;2023-01-26T08:03:44;99639.66;;;-0.39;100.00
39197;BME280;42889;51.112;13.772;2023-01-26T08:06:11;99631.34;;;-0.32;100.00
39197;BME280;42889;51.112;13.772;2023-01-26T08:08:41;99632.53;;;-0.37;100.00
39197;BME280;42889;51.112;13.772;2023-01-26T08:11:08;99640.59;;;-0.40;100.00
39197;BME280;42889;51.112;13.772;2023-01-26T08:13:36;99629.94;;;-0.39;100.00
39197;BME280;42889;51.112;13.772;2023-01-26T08:16:05;99638.03;;;-0.42;100.00
39197;BME280;42889;51.112;13.772;2023-01-26T08:18:34;99632.88;;;-0.28;100.00
39197;BME280;42889;51.112;13.772;2023-01-26T08:21:02;99627.78;;;-0.31;100.00
39197;BME280;42889;51.112;13.772;2023-01-26T08:23:29;99630.66;;;-0.35;100.00
39197;BME280;42889;51.112;13.772;2023-01-26T08:26:04;99630.66;;;-0.35;100.00
39197;BME280;42889;51.112;13.772;2023-01-26T08:28:31;99627.47;;;-0.42;100.00
39197;BME280;42889;51.112;13.772;2023-01-26T08:31:06;99631.34;;;-0.32;100.00
39197;BME280;42889;51.112;13.772;2023-01-26T08:33:34;99627.59;;;-0.28;100.00
39197;BME280;42889;51.112;13.772;2023-01-26T08:36:02;99617.41;;;-0.18;100.00
39197;BME280;42889;51.112;13.772;2023-01-26T08:38:30;99617.41;;;-0.18;100.00
39197;BME280;42889;51.112;13.772;2023-01-26T08:40:58;99620.13;;;-0.19;100.00
39197;BME280;42889;51.112;13.772;2023-01-26T08:43:24;99620.56;;;-0.27;100.00
39197;BME280;42889;51.112;13.772;2023-01-26T08:45:51;99615.41;;;-0.30;100.00
39197;BME280;42889;51.112;13.772;2023-01-26T08:48:19;99621.31;;;-0.25;100.00
39197;BME280;42889;51.112;13.772;2023-01-26T08:50:46;99619.84;;;-0.31;100.00
39197;BME280;42889;51.112;13.772;2023-01-26T08:53:12;99624.41;;;-0.34;100.00
39197;BME280;42889;51.112;13.772;2023-01-26T08:55:39;99619.44;;;-0.23;100.00
39197;BME280;42889;51.112;13.772;2023-01-26T08:58:06;99620.69;;;-0.30;100.00
39197;BME280;42889;51.112;13.772;2023-01-26T09:00:32;99625.34;;;-0.35;100.00
39197;BME280;42889;51.112;13.772;2023-01-26T09:03:01;99633.81;;;-0.29;100.00
39197;BME280;42889;51.112;13.772;2023-01-26T09:05:34;99637.41;;;-0.30;100.00
39197;BME280;42889;51.112;13.772;2023-01-26T09:08:06;99639.03;;;-0.44;100.00
39197;BME280;42889;51.112;13.772;2023-01-26T09:10:35;99636.47;;;-0.46;100.00
39197;BME280;42889;51.112;13.772;2023-01-26T09:13:02;99630.72;;;-0.37;100.00
39197;BME280;42889;51.112;13.772;2023-01-26T09:15:29;99637.72;;;-0.36;100.00
39197;BME280;42889;51.112;13.772;2023-01-26T09:17:55;99636.38;;;-0.44;100.00
39197;BME280;42889;51.112;13.772;2023-01-26T09:20:25;99637.28;;;-0.44;100.00
39197;BME280;42889;51.112;13.772;2023-01-26T09:22:52;99642.31;;;-0.57;100.00
39197;BME280;42889;51.112;13.772;2023-01-26T09:25:20;99637.66;;;-0.51;100.00
39197;BME280;42889;51.112;13.772;2023-01-26T09:27:46;99650.16;;;-0.55;100.00
39197;BME280;42889;51.112;13.772;2023-01-26T09:30:14;99645.78;;;-0.56;100.00
39197;BME280;42889;51.112;13.772;2023-01-26T09:32:40;99646.38;;;-0.49;100.00
39197;BME280;42889;51.112;13.772;2023-01-26T09:35:07;99648.66;;;-0.61;100.00
39197;BME280;42889;51.112;13.772;2023-01-26T09:37:42;99649.28;;;-0.56;100.00
39197;BME280;42889;51.112;13.772;2023-01-26T09:40:17;99648.13;;;-0.50;100.00
39197;BME280;42889;51.112;13.772;2023-01-26T09:42:58;99650.25;;;-0.39;100.00
39197;BME280;42889;51.112;13.772;2023-01-26T09:45:37;99652.03;;;-0.40;100.00
39197;BME280;42889;51.112;13.772;2023-01-26T09:48:15;99652.25;;;-0.44;100.00
39197;BME280;42889;51.112;13.772;2023-01-26T09:50:51;99647.53;;;-0.38;100.00
39197;BME280;42889;51.112;13.772;2023-01-26T09:54:12;99653.28;;;-0.30;100.00
39197;BME280;42889;51.112;13.772;2023-01-26T09:56:22;99657.63;;;-0.29;100.00
39197;BME280;42889;51.112;13.772;2023-01-26T09:58:54;99651.50;;;-0.29;100.00
39197;BME280;42889;51.112;13.772;2023-01-26T10:01:32;99647.59;;;-0.39;100.00
39197;BME280;42889;51.112;13.772;2023-01-26T10:04:15;99649.00;;;-0.32;100.00
39197;BME280;42889;51.112;13.772;2023-01-26T10:06:44;99656.94;;;-0.32;100.00
39197;BME280;42889;51.112;13.772;2023-01-26T10:09:25;99646.69;;;-0.38;100.00
39197;BME280;42889;51.112;13.772;2023-01-26T10:11:57;99648.94;;;-0.48;100.00
39197;BME280;42889;51.112;13.772;2023-01-26T10:16:58;99646.28;;;-0.48;100.00
39197;BME280;42889;51.112;13.772;2023-01-26T10:19:42;99646.91;;;-0.43;100.00
39197;BME280;42889;51.112;13.772;2023-01-26T10:22:24;99642.56;;;-0.44;100.00
39197;BME280;42889;51.112;13.772;2023-01-26T10:24:54;99639.19;;;-0.30;100.00
39197;BME280;42889;51.112;13.772;2023-01-26T10:27:22;99643.78;;;-0.34;100.00
39197;BME280;42889;51.112;13.772;2023-01-26T10:29:49;99638.25;;;-0.29;100.00
39197;BME280;42889;51.112;13.772;2023-01-26T10:32:17;99633.19;;;-0.34;100.00
39197;BME280;42889;51.112;13.772;2023-01-26T10:34:45;99639.91;;;-0.44;100.00
39197;BME280;42889;51.112;13.772;2023-01-26T10:37:22;99633.75;;;-0.44;100.00
39197;BME280;42889;51.112;13.772;2023-01-26T10:40:00;99628.53;;;-0.46;100.00
39197;BME280;42889;51.112;13.772;2023-01-26T10:42:30;99629.56;;;-0.48;100.00
39197;BME280;42889;51.112;13.772;2023-01-26T10:44:59;99615.72;;;-0.54;100.00
39197;BME280;42889;51.112;13.772;2023-01-26T10:47:28;99629.72;;;-0.51;100.00
39197;BME280;42889;51.112;13.772;2023-01-26T10:50:23;99625.75;;;-0.43;100.00
39197;BME280;42889;51.112;13.772;2023-01-26T10:55:24;99616.97;;;-0.43;100.00
39197;BME280;42889;51.112;13.772;2023-01-26T10:57:51;99615.00;;;-0.40;100.00
39197;BME280;42889;51.112;13.772;2023-01-26T11:02:53;99619.44;;;-0.40;100.00
39197;BME280;42889;51.112;13.772;2023-01-26T11:05:24;99612.59;;;-0.44;100.00
39197;BME280;42889;51.112;13.772;2023-01-26T11:07:57;99607.31;;;-0.44;100.00
39197;BME280;42889;51.112;13.772;2023-01-26T11:10:36;99608.25;;;-0.45;100.00
39197;BME280;42889;51.112;13.772;2023-01-26T11:13:18;99617.75;;;-0.41;100.00
39197;BME280;42889;51.112;13.772;2023-01-26T11:15:58;99616.72;;;-0.56;100.00
39197;BME280;42889;51.112;13.772;2023-01-26T11:32:11;99607.06;;;-0.40;100.00
39197;BME280;42889;51.112;13.772;2023-01-26T11:35:08;99599.56;;;-0.47;100.00
39197;BME280;42889;51.112;13.772;2023-01-26T11:40:47;99599.38;;;-0.44;100.00
39197;BME280;42889;51.112;13.772;2023-01-26T11:46:10;99573.97;;;-0.47;100.00
39197;BME280;42889;51.112;13.772;2023-01-26T11:54:22;99566.75;;;-0.43;100.00
39197;BME280;42889;51.112;13.772;2023-01-26T11:59:35;99566.41;;;-0.37;100.00
39197;BME280;42889;51.112;13.772;2023-01-26T12:04:42;99568.91;;;-0.51;100.00
39197;BME280;42889;51.112;13.772;2023-01-26T12:07:18;99566.56;;;-0.40;100.00
39197;BME280;42889;51.112;13.772;2023-01-26T12:09:49;99557.88;;;-0.60;100.00
39197;BME280;42889;51.112;13.772;2023-01-26T12:12:25;99549.38;;;-0.66;100.00
39197;BME280;42889;51.112;13.772;2023-01-26T12:15:16;99539.59;;;-0.47;100.00
39197;BME280;42889;51.112;13.772;2023-01-26T12:18:09;99546.16;;;-0.54;100.00
39197;BME280;42889;51.112;13.772;2023-01-26T12:20:40;99540.97;;;-0.40;100.00
39197;BME280;42889;51.112;13.772;2023-01-26T12:25:44;99535.25;;;-0.48;100.00
39197;BME280;42889;51.112;13.772;2023-01-26T12:31:00;99533.75;;;-0.36;100.00
39197;BME280;42889;51.112;13.772;2023-01-26T12:33:32;99531.88;;;-0.34;100.00
39197;BME280;42889;51.112;13.772;2023-01-26T12:41:28;99535.44;;;-0.35;100.00
39197;BME280;42889;51.112;13.772;2023-01-26T12:46:48;99517.81;;;-0.52;100.00
39197;BME280;42889;51.112;13.772;2023-01-26T12:49:23;99521.72;;;-0.42;100.00
39197;BME280;42889;51.112;13.772;2023-01-26T12:51:57;99523.94;;;-0.34;100.00
39197;BME280;42889;51.112;13.772;2023-01-26T12:54:46;99518.81;;;-0.37;100.00
39197;BME280;42889;51.112;13.772;2023-01-26T12:57:19;99509.78;;;-0.33;100.00
39197;BME280;42889;51.112;13.772;2023-01-26T12:59:46;99505.19;;;-0.30;100.00
39197;BME280;42889;51.112;13.772;2023-01-26T13:04:42;99502.44;;;-0.44;100.00
39197;BME280;42889;51.112;13.772;2023-01-26T13:07:36;99503.91;;;-0.38;100.00
39197;BME280;42889;51.112;13.772;2023-01-26T13:12:51;99491.91;;;-0.45;100.00
39197;BME280;42889;51.112;13.772;2023-01-26T13:15:20;99504.69;;;-0.54;100.00
39197;BME280;42889;51.112;13.772;2023-01-26T13:18:01;99504.13;;;-0.43;100.00
39197;BME280;42889;51.112;13.772;2023-01-26T13:20:46;99514.72;;;-0.43;100.00
39197;BME280;42889;51.112;13.772;2023-01-26T13:26:16;99502.72;;;-0.33;100.00
39197;BME280;42889;51.112;13.772;2023-01-26T13:28:45;99509.72;;;-0.32;100.00
39197;BME280;42889;51.112;13.772;2023-01-26T13:31:30;99502.63;;;-0.31;100.00
39197;BME280;42889;51.112;13.772;2023-01-26T13:34:01;99498.63;;;-0.38;100.00
39197;BME280;42889;51.112;13.772;2023-01-26T13:36:32;99501.03;;;-0.51;100.00
39197;BME280;42889;51.112;13.772;2023-01-26T13:39:09;99493.56;;;-0.43;100.00
39197;BME280;42889;51.112;13.772;2023-01-26T13:41:45;99498.31;;;-0.49;100.00
39197;BME280;42889;51.112;13.772;2023-01-26T13:44:19;99495.09;;;-0.39;100.00
39197;BME280;42889;51.112;13.772;2023-01-26T13:46:53;99506.09;;;-0.46;100.00
39197;BME280;42889;51.112;13.772;2023-01-26T13:49:41;99517.75;;;-0.50;100.00
39197;BME280;42889;51.112;13.772;2023-01-26T13:52:22;99511.00;;;-0.56;100.00
39197;BME280;42889;51.112;13.772;2023-01-26T13:54:52;99516.75;;;-0.48;100.00
39197;BME280;42889;51.112;13.772;2023-01-26T13:57:25;99515.09;;;-0.50;100.00
39197;BME280;42889;51.112;13.772;2023-01-26T13:59:57;99511.38;;;-0.46;100.00
39197;BME280;42889;51.112;13.772;2023-01-26T14:02:30;99513.41;;;-0.69;100.00
39197;BME280;42889;51.112;13.772;2023-01-26T14:04:57;99503.00;;;-0.55;100.00
39197;BME280;42889;51.112;13.772;2023-01-26T14:07:43;99508.03;;;-0.50;100.00
39197;BME280;42889;51.112;13.772;2023-01-26T14:10:17;99503.06;;;-0.56;100.00
39197;BME280;42889;51.112;13.772;2023-01-26T14:12:46;99495.63;;;-0.65;100.00